Terminal Aerodrome Forecast
Issued by NWS Pocatello, ID

Home | Current Version | Previous Version | Text Only | Print | Product List | Glossary On
Versions: 1 2 3 4 5 6 7 8 9 10 11 12 13 14
000
FTUS45 KPIH 232329
TAFPIH
TAF
KPIH 232329Z 2400/2424 25011KT P6SM FEW080
     FM240300 19009KT P6SM SKC
     FM241600 25028G40KT P6SM SCT080=

USA.gov is the U.S. government's official web portal to all federal, state and local government web resources and services.